createdAt,value
2022-10-01T00:00:36.766Z,7
2022-10-01T00:01:37.264Z,7
2022-10-01T00:02:36.814Z,6
2022-10-01T00:03:36.764Z,7
2022-10-01T00:04:36.779Z,7
2022-10-01T00:07:36.760Z,6
2022-10-01T00:08:36.836Z,7
2022-10-01T00:09:36.759Z,7
2022-10-01T00:10:36.751Z,6
2022-10-01T00:11:36.909Z,8
2022-10-01T00:12:36.765Z,5
2022-10-01T00:13:36.768Z,6
2022-10-01T00:14:36.761Z,6
2022-10-01T00:15:36.759Z,6
2022-10-01T00:16:36.836Z,6
2022-10-01T00:17:36.776Z,6
2022-10-01T00:18:36.768Z,7
2022-10-01T00:20:36.762Z,7
2022-10-01T00:21:37.073Z,6
2022-10-01T00:22:36.761Z,7
2022-10-01T00:23:36.829Z,5
2022-10-01T00:24:36.768Z,8
2022-10-01T00:28:36.765Z,7
2022-10-01T00:29:36.764Z,7
2022-10-01T00:30:40.261Z,7
2022-10-01T00:31:37.360Z,7
2022-10-01T00:32:36.769Z,6
2022-10-01T00:33:36.776Z,7
2022-10-01T00:34:36.767Z,7
2022-10-01T00:35:36.793Z,8
2022-10-01T00:36:36.791Z,7
2022-10-01T00:37:36.769Z,7
2022-10-01T00:38:36.776Z,7
2022-10-01T00:39:36.767Z,7
2022-10-01T00:41:37.228Z,10
2022-10-01T00:42:36.776Z,9
2022-10-01T00:43:36.774Z,9
2022-10-01T00:44:36.789Z,8
2022-10-01T00:45:36.839Z,9
2022-10-01T00:46:36.780Z,8
2022-10-01T00:47:36.780Z,9
2022-10-01T00:49:36.780Z,12
2022-10-01T00:50:36.778Z,8
2022-10-01T00:51:37.058Z,9
2022-10-01T00:52:36.775Z,9
2022-10-01T00:53:36.771Z,12
2022-10-01T00:54:36.780Z,8
2022-10-01T00:55:36.812Z,9
2022-10-01T00:56:36.778Z,9
2022-10-01T00:57:36.788Z,8
2022-10-01T00:58:36.781Z,10
2022-10-01T00:59:36.782Z,8
2022-10-01T01:00:36.782Z,10
2022-10-01T01:02:36.848Z,9
2022-10-01T01:03:36.775Z,9
2022-10-01T01:04:36.794Z,12
2022-10-01T01:05:36.798Z,9
2022-10-01T01:06:36.826Z,9
2022-10-01T01:07:36.784Z,9
2022-10-01T01:08:36.784Z,11
2022-10-01T01:09:36.787Z,9
2022-10-01T01:10:36.789Z,12
2022-10-01T01:11:37.007Z,9
2022-10-01T01:12:36.790Z,11
2022-10-01T01:13:36.790Z,8
2022-10-01T01:14:36.785Z,10
2022-10-01T01:16:36.781Z,10
2022-10-01T01:17:36.788Z,10
2022-10-01T01:18:36.792Z,9
2022-10-01T01:19:36.790Z,11
2022-10-01T01:20:36.789Z,10
2022-10-01T01:21:37.138Z,11
2022-10-01T01:23:36.789Z,10
2022-10-01T01:24:36.790Z,11
2022-10-01T01:25:36.834Z,11
2022-10-01T01:26:36.796Z,9
2022-10-01T01:27:36.791Z,10
2022-10-01T01:28:36.792Z,11
2022-10-01T01:29:36.789Z,13
2022-10-01T01:30:36.783Z,10
2022-10-01T01:31:37.454Z,10
2022-10-01T01:32:36.793Z,11
2022-10-01T01:33:36.799Z,9
2022-10-01T01:34:36.798Z,9
2022-10-01T01:35:36.796Z,8
2022-10-01T01:36:36.793Z,10
2022-10-01T01:37:36.819Z,11
2022-10-01T01:39:36.805Z,10
2022-10-01T01:40:36.823Z,10
2022-10-01T01:42:36.799Z,9
2022-10-01T01:43:36.799Z,8
2022-10-01T01:44:36.801Z,9
2022-10-01T01:45:36.930Z,10
2022-10-01T01:46:36.802Z,9
2022-10-01T01:47:36.801Z,9
2022-10-01T01:48:36.797Z,9
2022-10-01T01:49:36.795Z,9
2022-10-01T01:50:36.793Z,8
2022-10-01T01:51:36.962Z,11
2022-10-01T01:52:36.799Z,11
2022-10-01T01:53:36.827Z,9
2022-10-01T01:54:36.826Z,9
2022-10-01T01:55:36.805Z,9
2022-10-01T01:56:36.797Z,10
2022-10-01T01:57:36.816Z,8
2022-10-01T01:58:36.799Z,9
2022-10-01T01:59:36.801Z,12
2022-10-01T02:00:36.801Z,12
2022-10-01T02:01:37.203Z,11
2022-10-01T02:04:36.811Z,12
2022-10-01T02:05:36.806Z,11
2022-10-01T02:06:36.808Z,14
2022-10-01T02:07:36.802Z,11
2022-10-01T02:08:36.830Z,10
2022-10-01T02:09:36.808Z,12
2022-10-01T02:10:36.804Z,10
2022-10-01T02:11:36.807Z,9
2022-10-01T02:12:36.809Z,11
2022-10-01T02:13:36.809Z,10
2022-10-01T02:14:36.812Z,9
2022-10-01T02:15:36.877Z,10
2022-10-01T02:16:36.813Z,9
2022-10-01T02:17:36.807Z,12
2022-10-01T02:18:36.811Z,11
2022-10-01T02:19:36.799Z,7
2022-10-01T02:20:36.806Z,8
2022-10-01T02:21:37.019Z,9
2022-10-01T02:22:36.796Z,9
2022-10-01T02:24:36.802Z,10
2022-10-01T02:25:36.809Z,8
2022-10-01T02:26:36.816Z,8
2022-10-01T02:27:36.806Z,9
2022-10-01T02:28:36.805Z,8
2022-10-01T02:29:36.808Z,8
2022-10-01T02:30:36.808Z,8
2022-10-01T02:31:37.217Z,8
2022-10-01T02:32:36.813Z,8
2022-10-01T02:33:36.814Z,8
2022-10-01T02:35:36.823Z,9
2022-10-01T02:36:36.822Z,9
2022-10-01T02:37:36.814Z,7
2022-10-01T02:38:36.804Z,7
2022-10-01T02:39:36.842Z,8
2022-10-01T02:40:36.818Z,8
2022-10-01T02:41:37.093Z,8
2022-10-01T02:42:36.808Z,8
2022-10-01T02:43:41.962Z,8
2022-10-01T02:44:36.810Z,10
2022-10-01T02:45:36.861Z,11
2022-10-01T02:46:36.815Z,9
2022-10-01T02:47:36.816Z,8
2022-10-01T02:48:36.819Z,9
2022-10-01T02:49:36.826Z,10
2022-10-01T02:50:36.819Z,11
2022-10-01T02:51:37.054Z,8
2022-10-01T02:52:36.824Z,8
2022-10-01T02:56:36.813Z,8
2022-10-01T02:57:36.828Z,9
2022-10-01T02:58:36.815Z,9
2022-10-01T02:59:36.814Z,8
2022-10-01T03:00:36.819Z,8
2022-10-01T03:01:37.321Z,9
2022-10-01T03:02:36.881Z,8
2022-10-01T03:03:36.819Z,9
2022-10-01T03:04:36.827Z,10
2022-10-01T03:05:36.829Z,9
2022-10-01T03:06:36.833Z,8
2022-10-01T03:08:36.827Z,7
2022-10-01T03:09:36.865Z,7
2022-10-01T03:10:36.847Z,8
2022-10-01T03:11:36.885Z,9
2022-10-01T03:12:36.827Z,8
2022-10-01T03:13:36.834Z,9
2022-10-01T03:14:36.827Z,8
2022-10-01T03:15:36.850Z,8
2022-10-01T03:16:36.820Z,8
2022-10-01T03:17:36.833Z,7
2022-10-01T03:18:36.831Z,7
2022-10-01T03:19:36.832Z,8
2022-10-01T03:20:36.824Z,8
2022-10-01T03:21:37.036Z,8
2022-10-01T03:22:36.829Z,8
2022-10-01T03:23:36.828Z,9
2022-10-01T03:24:36.830Z,8
2022-10-01T03:25:36.828Z,9
2022-10-01T03:26:36.844Z,8
2022-10-01T03:27:36.831Z,9
2022-10-01T03:29:38.948Z,7
2022-10-01T03:30:36.827Z,8
2022-10-01T03:31:37.440Z,9
2022-10-01T03:32:36.850Z,9
2022-10-01T03:33:36.833Z,9
2022-10-01T03:34:36.837Z,10
2022-10-01T03:35:36.832Z,9
2022-10-01T03:36:36.828Z,9
2022-10-01T03:37:36.830Z,10
2022-10-01T03:38:36.830Z,9
2022-10-01T03:39:36.837Z,9
2022-10-01T03:40:36.841Z,8
2022-10-01T03:41:37.052Z,7
2022-10-01T03:42:36.834Z,9
2022-10-01T03:59:36.840Z,7
2022-10-01T04:00:36.835Z,7
2022-10-01T04:01:37.285Z,7
2022-10-01T04:02:36.957Z,8
2022-10-01T04:03:36.905Z,6
2022-10-01T04:04:36.846Z,7
2022-10-01T04:05:36.844Z,7
2022-10-01T04:06:36.845Z,7
2022-10-01T04:07:36.841Z,7
2022-10-01T04:08:36.841Z,6
2022-10-01T04:09:36.841Z,8
2022-10-01T04:11:37.237Z,8
2022-10-01T04:12:36.868Z,7
2022-10-01T04:13:36.848Z,7
2022-10-01T04:14:36.843Z,7
2022-10-01T04:15:36.848Z,7
2022-10-01T04:16:36.953Z,7
2022-10-01T04:17:36.851Z,7
2022-10-01T04:18:36.849Z,6
2022-10-01T04:19:36.841Z,7
2022-10-01T04:20:36.845Z,7
2022-10-01T04:21:37.339Z,6
2022-10-01T04:22:36.845Z,7
2022-10-01T04:23:36.914Z,6
2022-10-01T04:24:36.848Z,6
2022-10-01T04:25:36.843Z,6
2022-10-01T04:26:36.851Z,6
2022-10-01T04:27:36.848Z,6
2022-10-01T04:28:36.845Z,7
2022-10-01T04:29:40.225Z,5
2022-10-01T04:30:36.843Z,6
2022-10-01T04:31:37.209Z,7
2022-10-01T04:32:36.852Z,5
2022-10-01T04:33:36.840Z,6
2022-10-01T04:34:36.847Z,5
2022-10-01T04:35:36.851Z,6
2022-10-01T04:36:36.850Z,6
2022-10-01T04:37:36.853Z,6
2022-10-01T04:38:36.861Z,7
2022-10-01T04:39:36.854Z,6
2022-10-01T04:40:36.848Z,6
2022-10-01T04:41:37.221Z,6
2022-10-01T04:42:36.851Z,8
2022-10-01T04:43:36.950Z,9
2022-10-01T04:44:36.850Z,7
2022-10-01T04:45:36.847Z,12
2022-10-01T04:46:36.923Z,10
2022-10-01T04:47:37.695Z,10
2022-10-01T04:48:36.851Z,7
2022-10-01T05:05:36.863Z,5
2022-10-01T05:06:36.860Z,4
2022-10-01T05:07:36.855Z,5
2022-10-01T05:08:36.997Z,3
2022-10-01T05:09:36.869Z,4
2022-10-01T05:10:36.869Z,4
2022-10-01T05:11:37.191Z,4
2022-10-01T05:12:36.864Z,5
2022-10-01T05:13:36.865Z,4
2022-10-01T05:14:36.891Z,4
2022-10-01T05:15:36.863Z,4
2022-10-01T05:16:36.942Z,4
2022-10-01T05:17:36.867Z,4
2022-10-01T05:18:36.860Z,3
2022-10-01T05:19:36.862Z,4
2022-10-01T05:21:37.147Z,3
2022-10-01T05:22:36.862Z,3
2022-10-01T05:23:36.935Z,4
2022-10-01T05:24:36.870Z,4
2022-10-01T05:25:36.863Z,4
2022-10-01T05:27:36.862Z,3
2022-10-01T05:28:36.967Z,3
2022-10-01T05:29:36.876Z,4
2022-10-01T05:30:36.873Z,4
2022-10-01T05:31:37.397Z,3
2022-10-01T05:32:36.873Z,5
2022-10-01T05:34:36.871Z,5
2022-10-01T05:35:36.871Z,3
2022-10-01T05:36:36.872Z,4
2022-10-01T05:37:36.868Z,3
2022-10-01T05:38:36.870Z,3
2022-10-01T05:39:36.871Z,4
2022-10-01T05:40:36.866Z,3
2022-10-01T05:41:37.176Z,3
2022-10-01T05:42:36.906Z,3
2022-10-01T05:43:36.870Z,4
2022-10-01T05:44:36.875Z,4
2022-10-01T05:45:36.952Z,2
2022-10-01T05:46:36.876Z,4
2022-10-01T05:47:36.873Z,3
2022-10-01T05:48:37.094Z,4
2022-10-01T05:49:36.874Z,3
2022-10-01T05:50:36.871Z,3
2022-10-01T05:51:37.202Z,3
2022-10-01T05:52:36.879Z,3
2022-10-01T05:53:36.916Z,3
2022-10-01T05:55:36.889Z,3
2022-10-01T06:00:36.874Z,4
2022-10-01T06:01:37.203Z,3
2022-10-01T06:03:36.879Z,3
2022-10-01T06:04:41.039Z,4
2022-10-01T06:05:36.877Z,3
2022-10-01T06:06:36.877Z,3
2022-10-01T06:07:36.884Z,3
2022-10-01T06:08:36.885Z,3
2022-10-01T06:09:36.881Z,3
2022-10-01T06:10:36.943Z,3
2022-10-01T06:11:37.098Z,3
2022-10-01T06:12:36.881Z,4
2022-10-01T06:13:36.959Z,3
2022-10-01T06:14:36.881Z,3
2022-10-01T06:16:36.959Z,2
2022-10-01T06:17:36.889Z,3
2022-10-01T06:18:36.891Z,4
2022-10-01T06:19:36.881Z,3
2022-10-01T06:20:36.881Z,2
2022-10-01T06:21:37.395Z,3
2022-10-01T06:22:36.889Z,3
2022-10-01T06:24:36.894Z,4
2022-10-01T06:25:36.905Z,2
2022-10-01T06:26:36.900Z,3
2022-10-01T06:27:36.893Z,2
2022-10-01T06:28:36.965Z,2
2022-10-01T06:29:36.891Z,3
2022-10-01T06:30:36.890Z,3
2022-10-01T06:31:37.558Z,5
2022-10-01T06:32:36.902Z,3
2022-10-01T06:33:36.913Z,3
2022-10-01T06:35:36.888Z,3
2022-10-01T06:36:36.888Z,2
2022-10-01T06:37:36.892Z,4
2022-10-01T06:38:36.901Z,3
2022-10-01T06:39:36.896Z,3
2022-10-01T06:40:36.898Z,3
2022-10-01T06:41:37.201Z,3
2022-10-01T06:42:36.893Z,2
2022-10-01T06:44:36.893Z,3
2022-10-01T06:45:37.012Z,3
2022-10-01T06:46:36.914Z,3
2022-10-01T06:51:37.107Z,3
2022-10-01T06:52:36.908Z,2
2022-10-01T06:53:36.902Z,3
2022-10-01T06:54:36.904Z,3
2022-10-01T06:56:36.900Z,3
2022-10-01T06:57:36.905Z,3
2022-10-01T06:58:36.897Z,2
2022-10-01T06:59:36.900Z,2
2022-10-01T07:00:36.900Z,3
2022-10-01T07:01:37.536Z,3
2022-10-01T07:02:36.961Z,2
2022-10-01T07:03:36.965Z,3
2022-10-01T07:04:36.901Z,2
2022-10-01T07:05:36.904Z,2
2022-10-01T07:06:36.905Z,3
2022-10-01T07:07:36.903Z,3
2022-10-01T07:08:36.914Z,3
2022-10-01T07:09:36.903Z,4
2022-10-01T07:10:36.901Z,3
2022-10-01T07:11:37.009Z,3
2022-10-01T07:12:36.906Z,2
2022-10-01T07:13:36.900Z,2
2022-10-01T07:14:36.898Z,3
2022-10-01T07:15:36.908Z,3
2022-10-01T07:17:36.919Z,2
2022-10-01T07:18:36.939Z,2
2022-10-01T07:19:36.913Z,2
2022-10-01T07:20:36.915Z,2
2022-10-01T07:21:37.370Z,3
2022-10-01T07:22:36.911Z,2
2022-10-01T07:23:36.907Z,3
2022-10-01T07:24:36.903Z,3
2022-10-01T07:25:36.908Z,2
2022-10-01T07:26:36.909Z,2
2022-10-01T07:27:36.909Z,3
2022-10-01T07:28:36.914Z,2
2022-10-01T07:30:36.912Z,3
2022-10-01T07:31:37.293Z,2
2022-10-01T07:33:36.915Z,2
2022-10-01T07:34:36.910Z,2
2022-10-01T07:35:36.910Z,4
2022-10-01T07:36:36.920Z,3
2022-10-01T07:54:36.923Z,3
2022-10-01T07:55:36.919Z,3
2022-10-01T07:56:36.920Z,5
2022-10-01T07:57:36.925Z,4
2022-10-01T07:58:36.926Z,5
2022-10-01T07:59:36.932Z,5
2022-10-01T08:00:36.924Z,4
2022-10-01T08:01:37.565Z,4
2022-10-01T08:02:36.983Z,4
2022-10-01T08:04:36.924Z,4
2022-10-01T08:05:36.922Z,3
2022-10-01T08:06:36.925Z,3
2022-10-01T08:07:36.930Z,3
2022-10-01T08:09:36.923Z,4
2022-10-01T08:10:36.934Z,4
2022-10-01T08:11:37.307Z,4
2022-10-01T08:12:36.929Z,5
2022-10-01T08:13:36.933Z,5
2022-10-01T08:14:36.929Z,4
2022-10-01T08:15:36.935Z,3
2022-10-01T08:17:36.931Z,3
2022-10-01T08:18:36.935Z,3
2022-10-01T08:19:36.933Z,4
2022-10-01T08:20:36.961Z,3
2022-10-01T08:21:37.237Z,4
2022-10-01T08:22:41.656Z,3
2022-10-01T08:23:36.938Z,4
2022-10-01T08:25:36.941Z,3
2022-10-01T08:26:36.943Z,4
2022-10-01T08:27:36.947Z,5
2022-10-01T08:28:36.940Z,4
2022-10-01T08:29:36.935Z,4
2022-10-01T08:30:36.930Z,4
2022-10-01T08:31:37.600Z,5
2022-10-01T08:32:36.934Z,5
2022-10-01T08:33:37.001Z,5
2022-10-01T08:34:36.944Z,6
2022-10-01T08:36:36.955Z,5
2022-10-01T08:37:36.940Z,4
2022-10-01T08:38:36.934Z,5
2022-10-01T08:39:36.935Z,4
2022-10-01T08:40:36.952Z,6
2022-10-01T08:41:37.281Z,5
2022-10-01T08:42:36.936Z,6
2022-10-01T08:43:36.945Z,5
2022-10-01T08:44:36.941Z,5
2022-10-01T08:45:36.991Z,5
2022-10-01T08:46:36.944Z,6
2022-10-01T08:47:36.955Z,5
2022-10-01T08:48:36.933Z,5
2022-10-01T08:51:37.347Z,6
2022-10-01T08:52:36.948Z,5
2022-10-01T08:53:36.943Z,6
2022-10-01T08:54:36.941Z,6
2022-10-01T08:55:36.946Z,6
2022-10-01T08:57:36.945Z,5
2022-10-01T08:58:36.949Z,6
2022-10-01T08:59:36.952Z,7
2022-10-01T09:00:36.951Z,5
2022-10-01T09:01:37.359Z,6
2022-10-01T09:02:36.962Z,6
2022-10-01T09:03:36.957Z,7
2022-10-01T09:04:37.014Z,7
2022-10-01T09:05:36.942Z,6
2022-10-01T09:06:36.950Z,6
2022-10-01T09:07:36.955Z,7
2022-10-01T09:08:36.951Z,8
2022-10-01T09:09:36.943Z,5
2022-10-01T09:10:36.952Z,6
2022-10-01T09:11:37.273Z,6
2022-10-01T09:12:36.961Z,5
2022-10-01T09:13:36.953Z,6
2022-10-01T09:14:36.969Z,6
2022-10-01T09:15:36.959Z,6
2022-10-01T09:16:37.010Z,8
2022-10-01T09:19:38.770Z,6
2022-10-01T09:20:36.956Z,5
2022-10-01T09:21:37.137Z,5
2022-10-01T09:22:36.996Z,5
2022-10-01T09:23:36.952Z,7
2022-10-01T09:24:36.982Z,5
2022-10-01T09:25:36.979Z,7
2022-10-01T09:30:36.963Z,5
2022-10-01T09:31:37.530Z,4
2022-10-01T09:32:38.700Z,5
2022-10-01T09:33:36.992Z,4
2022-10-01T09:34:36.962Z,5
2022-10-01T09:35:36.959Z,7
2022-10-01T09:40:36.964Z,6
2022-10-01T09:41:37.299Z,5
2022-10-01T09:42:36.972Z,5
2022-10-01T09:43:36.974Z,5
2022-10-01T09:44:36.963Z,5
2022-10-01T09:45:37.094Z,5
2022-10-01T09:46:36.967Z,5
2022-10-01T09:47:36.993Z,5
2022-10-01T09:48:36.966Z,5
2022-10-01T09:50:36.965Z,4
2022-10-01T09:51:40.221Z,6
2022-10-01T09:52:36.973Z,5
2022-10-01T09:53:36.999Z,5
2022-10-01T09:54:36.968Z,5
2022-10-01T09:55:36.972Z,4
2022-10-01T09:56:36.974Z,5
2022-10-01T09:58:36.978Z,4
2022-10-01T09:59:36.981Z,5
2022-10-01T10:01:37.549Z,5
2022-10-01T10:02:37.096Z,6
2022-10-01T10:03:37.116Z,4
2022-10-01T10:04:36.994Z,5
2022-10-01T10:05:37.001Z,8
2022-10-01T10:06:37.606Z,5
2022-10-01T10:07:36.980Z,6
2022-10-01T10:08:36.983Z,5
2022-10-01T10:09:36.975Z,5
2022-10-01T10:11:37.232Z,6
2022-10-01T10:12:36.977Z,4
2022-10-01T10:13:36.982Z,5
2022-10-01T10:14:36.979Z,5
2022-10-01T10:15:37.024Z,6
2022-10-01T10:16:37.713Z,4
2022-10-01T10:17:36.979Z,5
2022-10-01T10:18:37.571Z,5
2022-10-01T10:19:36.984Z,6
2022-10-01T10:20:36.978Z,6
2022-10-01T10:21:36.983Z,5
2022-10-01T10:22:36.990Z,4
2022-10-01T10:23:36.979Z,5
2022-10-01T10:24:37.004Z,5
2022-10-01T10:25:36.982Z,4
2022-10-01T10:26:37.305Z,4
2022-10-01T10:27:36.984Z,5
2022-10-01T10:28:39.608Z,5
2022-10-01T10:29:36.988Z,3
2022-10-01T10:30:37.006Z,5
2022-10-01T10:31:37.049Z,3
2022-10-01T10:32:36.992Z,3
2022-10-01T10:33:36.990Z,5
2022-10-01T10:34:37.000Z,6
2022-10-01T10:35:36.997Z,4
2022-10-01T10:36:37.386Z,4
2022-10-01T10:37:37.002Z,3
2022-10-01T10:38:36.991Z,4
2022-10-01T10:39:36.989Z,3
2022-10-01T10:40:37.001Z,6
2022-10-01T10:41:37.574Z,3
2022-10-01T10:43:36.991Z,4
2022-10-01T10:44:37.007Z,4
2022-10-01T10:45:36.995Z,4
2022-10-01T10:46:37.068Z,4
2022-10-01T10:47:37.038Z,5
2022-10-01T10:48:37.000Z,7
2022-10-01T10:49:36.991Z,4
2022-10-01T10:51:37.378Z,6
2022-10-01T10:52:37.024Z,4
2022-10-01T10:53:36.997Z,4
2022-10-01T10:54:37.003Z,5
2022-10-01T10:55:37.024Z,5
2022-10-01T10:56:37.331Z,5
2022-10-01T10:57:36.998Z,4
2022-10-01T10:58:36.996Z,4
2022-10-01T10:59:37.003Z,6
2022-10-01T11:00:37.009Z,4
2022-10-01T11:01:37.498Z,5
2022-10-01T11:02:37.042Z,4
2022-10-01T11:03:37.007Z,4
2022-10-01T11:04:37.005Z,5
2022-10-01T11:20:37.020Z,5
2022-10-01T11:21:37.009Z,5
2022-10-01T11:22:37.004Z,6
2022-10-01T11:23:37.006Z,5
2022-10-01T11:25:37.014Z,5
2022-10-01T11:26:37.394Z,5
2022-10-01T11:27:37.078Z,6
2022-10-01T11:28:37.024Z,7
2022-10-01T11:29:37.017Z,7
2022-10-01T11:30:37.023Z,7
2022-10-01T11:31:37.037Z,5
2022-10-01T11:33:37.023Z,5
2022-10-01T11:34:37.037Z,6
2022-10-01T11:35:37.041Z,7
2022-10-01T11:36:37.338Z,10
2022-10-01T11:37:37.017Z,9
2022-10-01T11:38:37.014Z,8
2022-10-01T11:39:37.045Z,8
2022-10-01T11:40:37.016Z,5
2022-10-01T11:41:37.025Z,5
2022-10-01T11:42:37.023Z,7
2022-10-01T11:44:37.050Z,6
2022-10-01T11:45:37.017Z,5
2022-10-01T11:46:37.612Z,7
2022-10-01T11:47:37.020Z,9
2022-10-01T11:48:37.020Z,5
2022-10-01T11:49:37.020Z,5
2022-10-01T11:52:37.020Z,5
2022-10-01T11:53:37.023Z,7
2022-10-01T11:54:37.021Z,6
2022-10-01T11:55:37.029Z,6
2022-10-01T11:56:37.436Z,5
2022-10-01T11:57:37.044Z,11
2022-10-01T11:58:37.025Z,4
2022-10-01T11:59:37.027Z,5
2022-10-01T12:00:37.028Z,6
2022-10-01T12:01:37.082Z,5
2022-10-01T12:02:37.027Z,7
2022-10-01T12:03:37.053Z,7
2022-10-01T12:05:37.126Z,7
2022-10-01T12:06:37.308Z,7
2022-10-01T12:07:37.033Z,8
2022-10-01T12:11:37.042Z,8
2022-10-01T12:12:37.040Z,5
2022-10-01T12:13:37.041Z,6
2022-10-01T12:14:37.049Z,6
2022-10-01T12:15:37.038Z,8
2022-10-01T12:16:37.391Z,7
2022-10-01T12:17:37.040Z,6
2022-10-01T12:18:37.033Z,5
2022-10-01T12:19:37.101Z,7
2022-10-01T12:20:37.041Z,7
2022-10-01T12:21:37.038Z,7
2022-10-01T12:22:37.045Z,6
2022-10-01T12:23:37.039Z,9
2022-10-01T12:24:37.037Z,7
2022-10-01T12:26:37.596Z,6
2022-10-01T12:27:37.052Z,5
2022-10-01T12:28:37.067Z,6
2022-10-01T12:29:37.038Z,6
2022-10-01T12:30:37.058Z,6
2022-10-01T12:31:37.130Z,6
2022-10-01T12:33:37.042Z,8
2022-10-01T12:34:37.054Z,5
2022-10-01T12:35:37.040Z,7
2022-10-01T12:36:37.492Z,5
2022-10-01T12:37:37.040Z,6
2022-10-01T12:38:37.048Z,8
2022-10-01T12:39:37.050Z,7
2022-10-01T12:40:37.068Z,7
2022-10-01T12:41:37.088Z,6
2022-10-01T12:42:37.053Z,7
2022-10-01T12:43:37.050Z,5
2022-10-01T12:45:37.065Z,5
2022-10-01T12:46:37.669Z,10
2022-10-01T12:47:37.047Z,7
2022-10-01T12:48:37.058Z,6
2022-10-01T12:49:37.058Z,7
2022-10-01T12:50:37.059Z,8
2022-10-01T12:51:37.053Z,10
2022-10-01T12:52:37.058Z,6
2022-10-01T12:53:37.064Z,6
2022-10-01T12:54:37.056Z,5
2022-10-01T12:55:37.055Z,7
2022-10-01T12:56:37.588Z,6
2022-10-01T12:57:37.104Z,11
2022-10-01T12:58:37.060Z,7
2022-10-01T13:14:37.064Z,7
2022-10-01T13:15:37.088Z,6
2022-10-01T13:16:37.815Z,5
2022-10-01T13:18:37.071Z,7
2022-10-01T13:19:37.074Z,8
2022-10-01T13:20:37.076Z,8
2022-10-01T13:21:37.068Z,5
2022-10-01T13:22:37.065Z,7
2022-10-01T13:23:37.073Z,6
2022-10-01T13:24:37.070Z,6
2022-10-01T13:25:37.070Z,7
2022-10-01T13:26:37.704Z,7
2022-10-01T13:27:37.313Z,6
2022-10-01T13:28:37.075Z,7
2022-10-01T13:29:37.081Z,8
2022-10-01T13:31:37.142Z,9
2022-10-01T13:32:37.080Z,6
2022-10-01T13:33:37.076Z,5
2022-10-01T13:34:37.077Z,7
2022-10-01T13:35:37.079Z,9
2022-10-01T13:36:37.533Z,8
2022-10-01T13:37:37.085Z,7
2022-10-01T13:39:39.607Z,5
2022-10-01T13:40:37.087Z,5
2022-10-01T13:41:37.470Z,6
2022-10-01T13:42:37.081Z,7
2022-10-01T13:43:37.084Z,7
2022-10-01T13:44:37.106Z,5
2022-10-01T13:45:37.098Z,5
2022-10-01T13:46:37.587Z,6
2022-10-01T13:47:37.087Z,7
2022-10-01T13:48:37.099Z,5
2022-10-01T13:49:37.093Z,5
2022-10-01T13:50:37.094Z,4
2022-10-01T13:52:37.083Z,4
2022-10-01T13:53:37.082Z,4
2022-10-01T13:54:37.087Z,4
2022-10-01T13:55:37.083Z,9
2022-10-01T13:56:37.520Z,6
2022-10-01T13:57:37.097Z,5
2022-10-01T13:58:37.095Z,5
2022-10-01T14:01:37.173Z,5
2022-10-01T14:11:37.100Z,5
2022-10-01T14:16:37.266Z,8
2022-10-01T14:17:37.095Z,8
2022-10-01T14:18:37.155Z,4
2022-10-01T14:19:37.110Z,5
2022-10-01T14:20:37.093Z,5
2022-10-01T14:21:37.097Z,4
2022-10-01T14:22:37.097Z,7
2022-10-01T14:23:37.108Z,6
2022-10-01T14:24:37.100Z,6
2022-10-01T14:25:37.099Z,6
2022-10-01T14:26:37.423Z,5
2022-10-01T14:27:37.093Z,10
2022-10-01T14:29:37.096Z,4
2022-10-01T14:30:37.095Z,8
2022-10-01T14:31:37.169Z,7
2022-10-01T14:32:37.117Z,7
2022-10-01T14:33:37.112Z,4
2022-10-01T14:34:37.101Z,5
2022-10-01T14:35:37.100Z,5
2022-10-01T14:37:37.104Z,6
2022-10-01T14:39:37.106Z,4
2022-10-01T14:40:37.166Z,7
2022-10-01T14:41:37.112Z,6
2022-10-01T14:42:37.103Z,5
2022-10-01T14:43:37.105Z,5
2022-10-01T14:44:37.106Z,5
2022-10-01T14:45:37.128Z,5
2022-10-01T14:46:37.671Z,5
2022-10-01T14:47:37.123Z,4
2022-10-01T14:48:37.106Z,7
2022-10-01T14:50:37.116Z,5
2022-10-01T14:51:38.246Z,5
2022-10-01T14:52:37.117Z,5
2022-10-01T14:53:37.113Z,5
2022-10-01T14:54:37.105Z,6
2022-10-01T14:55:37.111Z,4
2022-10-01T14:56:37.306Z,6
2022-10-01T14:58:37.109Z,6
2022-10-01T14:59:37.114Z,6
2022-10-01T15:00:37.116Z,5
2022-10-01T15:01:37.112Z,8
2022-10-01T15:02:37.113Z,7
2022-10-01T15:19:37.138Z,6
2022-10-01T15:20:37.126Z,4
2022-10-01T15:21:37.129Z,6
2022-10-01T15:22:37.123Z,5
2022-10-01T15:24:37.124Z,5
2022-10-01T15:25:37.125Z,5
2022-10-01T15:26:37.596Z,8
2022-10-01T15:27:37.135Z,7
2022-10-01T15:28:37.128Z,6
2022-10-01T15:29:37.127Z,6
2022-10-01T15:30:37.124Z,9
2022-10-01T15:32:37.131Z,10
2022-10-01T15:33:37.133Z,7
2022-10-01T15:34:37.159Z,5
2022-10-01T15:35:37.135Z,6
2022-10-01T15:36:37.507Z,4
2022-10-01T15:37:37.167Z,5
2022-10-01T15:40:37.125Z,5
2022-10-01T15:41:37.139Z,4
2022-10-01T15:42:37.179Z,4
2022-10-01T15:44:38.563Z,7
2022-10-01T15:45:37.138Z,8
2022-10-01T15:46:37.369Z,5
2022-10-01T15:47:37.142Z,5
2022-10-01T15:48:37.141Z,6
2022-10-01T15:49:37.138Z,6
2022-10-01T15:50:37.136Z,6
2022-10-01T15:51:37.144Z,5
2022-10-01T15:53:37.145Z,5
2022-10-01T15:54:37.139Z,6
2022-10-01T15:55:37.136Z,4
2022-10-01T15:56:37.138Z,9
2022-10-01T15:57:37.153Z,5
2022-10-01T15:58:37.145Z,8
2022-10-01T15:59:37.143Z,5
2022-10-01T16:01:37.294Z,7
2022-10-01T16:02:37.167Z,4
2022-10-01T16:03:37.169Z,5
2022-10-01T16:04:37.143Z,5
2022-10-01T16:05:37.167Z,3
2022-10-01T16:06:37.148Z,6
2022-10-01T16:07:37.152Z,9
2022-10-01T16:08:37.142Z,8
2022-10-01T16:09:37.141Z,7
2022-10-01T16:11:37.158Z,7
2022-10-01T16:12:37.147Z,6
2022-10-01T16:14:37.155Z,6
2022-10-01T16:15:37.143Z,7
2022-10-01T16:16:37.608Z,6
2022-10-01T16:17:37.153Z,8
2022-10-01T16:18:37.156Z,5
2022-10-01T16:19:37.152Z,6
2022-10-01T16:20:37.151Z,8
2022-10-01T16:21:37.163Z,8
2022-10-01T16:22:37.222Z,7
2022-10-01T16:23:37.155Z,7
2022-10-01T16:24:37.150Z,6
2022-10-01T16:42:37.161Z,6
2022-10-01T16:43:37.155Z,6
2022-10-01T16:44:37.159Z,8
2022-10-01T16:46:37.156Z,4
2022-10-01T16:47:41.055Z,12
2022-10-01T16:48:37.188Z,5
2022-10-01T16:49:37.211Z,5
2022-10-01T16:50:37.163Z,9
2022-10-01T16:51:37.164Z,6
2022-10-01T16:52:37.164Z,8
2022-10-01T16:54:37.209Z,8
2022-10-01T16:55:37.163Z,7
2022-10-01T16:56:37.358Z,8
2022-10-01T16:57:37.171Z,9
2022-10-01T16:58:37.164Z,7
2022-10-01T16:59:37.191Z,7
2022-10-01T17:00:37.329Z,9
2022-10-01T17:01:37.204Z,12
2022-10-01T17:02:37.170Z,10
2022-10-01T17:03:37.165Z,11
2022-10-01T17:04:37.177Z,6
2022-10-01T17:05:37.167Z,6
2022-10-01T17:07:37.196Z,5
2022-10-01T17:08:37.167Z,8
2022-10-01T17:09:37.170Z,11
2022-10-01T17:11:37.182Z,6
2022-10-01T17:12:37.179Z,12
2022-10-01T17:13:37.169Z,6
2022-10-01T17:15:37.169Z,9
2022-10-01T17:16:37.497Z,10
2022-10-01T17:17:37.172Z,7
2022-10-01T17:19:37.168Z,11
2022-10-01T17:20:37.172Z,8
2022-10-01T17:21:37.169Z,9
2022-10-01T17:22:37.179Z,7
2022-10-01T17:23:37.178Z,8
2022-10-01T17:24:37.197Z,10
2022-10-01T17:25:37.180Z,7
2022-10-01T17:26:37.176Z,7
2022-10-01T17:28:37.183Z,9
2022-10-01T17:29:37.179Z,6
2022-10-01T17:30:37.178Z,9
2022-10-01T17:34:37.186Z,9
2022-10-01T17:44:37.192Z,11
2022-10-01T17:47:37.185Z,8
2022-10-01T17:48:37.204Z,10
2022-10-01T17:49:37.183Z,11
2022-10-01T17:50:37.186Z,8
2022-10-01T17:51:37.189Z,6
2022-10-01T17:52:37.191Z,10
2022-10-01T17:53:42.132Z,11
2022-10-01T17:55:37.191Z,7
2022-10-01T17:56:37.399Z,7
2022-10-01T17:58:40.533Z,10
2022-10-01T17:59:37.194Z,10
2022-10-01T18:00:37.196Z,6
2022-10-01T18:01:37.203Z,7
2022-10-01T18:02:42.106Z,9
2022-10-01T18:03:37.216Z,10
2022-10-01T18:04:37.192Z,8
2022-10-01T18:05:37.196Z,10
2022-10-01T18:06:37.224Z,8
2022-10-01T18:07:37.201Z,7
2022-10-01T18:08:54.058Z,8
2022-10-01T18:09:37.228Z,8
2022-10-01T18:10:37.201Z,10
2022-10-01T18:11:37.204Z,13
2022-10-01T18:12:37.199Z,13
2022-10-01T18:13:37.818Z,9
2022-10-01T18:14:37.199Z,8
2022-10-01T18:15:37.201Z,9
2022-10-01T18:16:37.418Z,8
2022-10-01T18:17:42.957Z,8
2022-10-01T18:19:53.901Z,9
2022-10-01T18:20:37.204Z,9
2022-10-01T18:21:37.200Z,7
2022-10-01T18:22:37.209Z,7
2022-10-01T18:23:37.198Z,9
2022-10-01T18:24:37.200Z,7
2022-10-01T18:25:37.203Z,10
2022-10-01T18:26:37.801Z,6
2022-10-01T18:27:37.202Z,13
2022-10-01T18:28:37.207Z,8
2022-10-01T18:29:37.211Z,9
2022-10-01T18:30:37.219Z,8
2022-10-01T18:31:37.299Z,6
2022-10-01T18:32:37.204Z,9
2022-10-01T18:35:37.245Z,14
2022-10-01T18:36:37.565Z,11
2022-10-01T18:41:37.230Z,11
2022-10-01T18:42:37.210Z,7
2022-10-01T18:43:37.208Z,9
2022-10-01T18:44:37.207Z,9
2022-10-01T18:45:37.289Z,6
2022-10-01T18:46:37.726Z,8
2022-10-01T18:47:37.216Z,11
2022-10-01T18:48:37.219Z,7
2022-10-01T18:49:37.219Z,9
2022-10-01T18:50:37.209Z,9
2022-10-01T18:51:37.222Z,8
2022-10-01T18:53:37.211Z,8
2022-10-01T18:54:37.220Z,7
2022-10-01T18:55:37.218Z,9
2022-10-01T18:56:37.695Z,11
2022-10-01T18:57:37.227Z,12
2022-10-01T18:58:37.221Z,7
2022-10-01T18:59:37.218Z,7